UATG 082230Z 11005MPS CAVOK M14/M18 Q1042 NOSIG RMK QFE783/1045
QNH:(hPa/inHg/mmHg)1042 / 30.77 / 782
QFE:(hPa/inHg/mmHg)1045 / 30.85 / 784
Temperature-14
Dew Point-18
Visibility> 10000
WeatherCAVOK
Cloud Cover
Transition Altitude10000 ft.
Transition LevelFL110
SQUAWK